KPAE/PAE METAR and TAF weather

Enter ICAO airport designator
Station Type Date Time Source
KPAE METAR 2021/08/01 16:53 UTC NOAA

KPAE 011653Z 00000KT 10SM OVC055 18/14 A3010 RMK AO2 SLP191 T01780144


Station Type Date Time Source
KPAE Decoded METAR 2021/08/01 16:53 UTC NOAA

EVERETT SNOHOMISH COUNTY, WA, United States (KPAE) 47-55N 122-17W 180M
Aug 01, 2021 - 12:53 PM EDT / 2021.08.01 1653 UTC
Wind: Calm:0
Visibility: 10 mile(s):0
Sky conditions: overcast
Temperature: 64.0 F (17.8 C)
Dew Point: 57.9 F (14.4 C)
Relative Humidity: 80%
Pressure (altimeter): 30.1 in. Hg (1019 hPa)
ob: KPAE 011653Z 00000KT 10SM OVC055 18/14 A3010 RMK AO2 SLP191 T01780144
cycle: 17

Station Type Date Time Source
KPAE TAF 2021/08/01 18:22 UTC NOAA

TAF KPAE 011720Z 0118/0218 VRB04KT P6SM SCT050 BKN150
FM012200 33006KT P6SM SCT150
FM021200 VRB04KT P6SM SCT005
FM021600 VRB04KT P6SM SKC

Example: see airport list